• Join FlightAware (Why Join?)
  • Login
  • US Flag 
02:01PM EST


 

Airport Tracker/Info


-or-


 

Live Flight TrackerFlight Track Log ✈ RPA4291 ✈ 23-Jul-2014 ✈ KORD - KDSM

Flight Track Log - Related Links

Times and Time Zones

All times are in EDT time to prevent confusion due to time zone crossing. See the RPA4291 flight status page for this flight to view local times or setup timezone preferences in your user account.

Time Position Orientation Groundspeed Altitude Reporting Facility
EDT Latitude Longitude Course Direction KTS MPH feet Rate Location/Type
08:30PM 41.9333 -87.8833 270° West 237 273 2,700  Level Chicago TRACON
08:31PM 41.8733 -87.9242 207° Southwest 254 292 4,900 1,860 Climbing Chicago Center
08:32PM 41.9300 -88.4770 264° West  Level FlightAware Approximate
08:32PM 41.8011 -87.9886 214° Southwest 287 330 6,400  Level Chicago Center
08:33PM 41.9189 -88.6215 264° West  Level FlightAware Approximate
08:33PM 41.8033 -88.0867 272° West 285 328 8,700  Level Chicago Center
08:34PM 41.9088 -88.7649 251° West  Level FlightAware Approximate
08:34PM 41.8375 -88.1808 296° West 283 326 11,600  Level Chicago Center
08:35PM 41.9000 -88.8866 270° West  Level FlightAware Approximate
08:35PM 41.8647 -88.2906 288° West 291 335 14,600  Level Chicago Center
08:36PM 41.8756 -88.4131 277° West 333 383 15,900 1,620 Climbing Chicago Center
08:37PM 41.8892 -88.5517 278° West 356 410 18,000 1,980 Climbing Chicago Center
08:38PM 41.9017 -88.6853 277° West 359 413 20,100 2,040 Climbing Chicago Center
08:39PM 41.9131 -88.8267 276° West 375 432 22,300 1,920 Climbing Chicago Center
08:40PM 41.9067 -88.9694 267° West 380 437 24,100 1,560 Climbing Chicago Center
08:41PM 41.8983 -89.1167 266° West 392 451 25,600 900 Climbing Chicago Center
08:42PM 41.8872 -89.3008 265° West 412 474 26,000 180 Climbing Chicago Center
08:43PM 41.8769 -89.4528 265° West 413 475 26,000  Level Chicago Center
08:44PM 41.8678 -89.6011 265° West 406 467 26,000  Level Chicago Center
08:45PM 41.8569 -89.7511 265° West 406 467 26,000  Level Chicago Center
08:46PM 41.8475 -89.9014 265° West 406 467 26,000  Level Chicago Center
08:47PM 41.8389 -90.0750 266° West 407 468 26,000  Level Chicago Center
08:48PM 41.8292 -90.2231 265° West 406 467 26,000  Level Chicago Center
08:49PM 41.8178 -90.3722 264° West 406 467 26,000  Level Chicago Center
08:50PM 41.8067 -90.5219 264° West 406 467 26,000  Level Chicago Center
08:51PM 41.7944 -90.6753 264° West 417 480 26,000  Level Chicago Center
08:52PM 41.7806 -90.8544 264° West 411 473 26,000  Level Chicago Center
08:53PM 41.7694 -91.0042 264° West 410 472 26,000  Level Chicago Center
08:54PM 41.7581 -91.1547 264° West 410 472 26,000  Level Chicago Center
08:55PM 41.7456 -91.3053 264° West 410 472 26,000  Level Chicago Center
08:56PM 41.7339 -91.4561 264° West 410 472 26,000  Level Chicago Center
08:57PM 41.7192 -91.6367 264° West 410 472 26,000  Level Chicago Center
08:58PM 41.7069 -91.7897 264° West 411 473 26,000  Level Chicago Center
09:00PM 41.6939 -91.9417 263° West 412 474 26,000  Level Chicago Center
09:01PM 41.6819 -92.0931 264° West 412 474 26,000  Level Chicago Center
09:02PM 41.6683 -92.2444 263° West 412 474 26,000  Level Chicago Center
09:03PM 41.6517 -92.4247 263° West 412 474 26,000 -240 Level Chicago Center
09:04PM 41.6378 -92.5753 263° West 412 474 25,600 -1,680 Descending Chicago Center
09:05PM 41.6242 -92.7219 263° West 409 471 22,700 -3,060 Descending Minneapolis Center
09:06PM 41.6111 -92.8672 263° West 405 466 19,500 -3,000 Descending Minneapolis Center
09:07PM 41.5967 -93.0058 262° West 391 450 16,600 -2,820 Descending Minneapolis Center
09:08PM 41.5642 -93.1369 252° West 382 440 13,700 -2,700 Descending Minneapolis Center
09:09PM 41.5331 -93.2864 255° West 360 414 11,100 -2,220 Descending Minneapolis Center
09:10PM 41.5197 -93.3703 258° West 287 330 9,600 -1,860 Descending Minneapolis Center
09:10PM 41.5075 -93.3933 235° Southwest 298 343 9,200 -2,220 Descending Minneapolis Center
09:11PM 41.4881 -93.4711 252° West 286 329 7,400 -2,040 Descending Minneapolis Center
09:11PM 41.4778 -93.4939 239° Southwest 294 338 7,100 -2,100 Descending Minneapolis Center
09:12PM 41.4622 -93.5658 254° West 270 311 5,300 -2,160 Descending Minneapolis Center
09:12PM 41.4492 -93.5950 239° Southwest 271 312 4,900 -1,800 Descending Minneapolis Center
09:13PM 41.4364 -93.6553 254° West 250 288 3,500 -1,800 Descending Minneapolis Center
09:13PM 41.4258 -93.6839 244° Southwest 254 292 3,100 -1,020 Descending Minneapolis Center
09:14PM 41.4228 -93.7331 265° West 204 235 2,500 -600 Descending Minneapolis Center
09:14PM 41.4294 -93.7583 289° West 210 242 2,500  Level Minneapolis Center
09:15PM 41.4689 -93.7569 North 175 201 2,500 -120 Level Minneapolis Center
09:15PM 41.4769 -93.7597 346° North 179 206 2,400 -600 Descending Minneapolis Center
09:16PM 41.4997 -93.7231 50° Northeast 135 155 1,900 -720 Descending Minneapolis Center
09:16PM 41.5011 -93.7183 69° East 143 165 1,700 -720 Descending Minneapolis Center
09:17PM 41.5222 -93.6836 51° Northeast 118 136 1,200 -720 Descending Minneapolis Center
09:17PM 41.5231 -93.6781 79° East 131 151 1,000 -240 Descending Minneapolis Center
09:18PM 41.5361 -93.6539 54° Northeast 83 96 900 -120 Descending Minneapolis Center